createdAt,value
2019-01-12T00:00:40.181Z,104.33
2019-01-12T00:01:40.506Z,104.40
2019-01-12T00:02:40.790Z,103.96
2019-01-12T00:03:41.111Z,104.11
2019-01-12T00:04:41.546Z,104.43
2019-01-12T00:05:41.836Z,104.63
2019-01-12T00:06:42.298Z,104.50
2019-01-12T00:07:42.571Z,104.34
2019-01-12T00:08:42.936Z,104.21
2019-01-12T00:09:43.255Z,104.36
2019-01-12T00:10:43.614Z,104.06
2019-01-12T00:11:43.965Z,104.22
2019-01-12T00:12:44.234Z,104.23
2019-01-12T00:13:44.516Z,104.49
2019-01-12T00:14:44.777Z,104.42
2019-01-12T00:15:45.050Z,104.36
2019-01-12T00:16:45.310Z,104.53
2019-01-12T00:17:45.568Z,104.80
2019-01-12T00:17:54.934Z,104.97
2019-01-12T00:18:55.202Z,104.96
2019-01-12T00:19:55.468Z,104.88
2019-01-12T00:20:55.878Z,104.63
2019-01-12T00:21:56.165Z,104.22
2019-01-12T00:22:56.560Z,103.84
2019-01-12T00:23:56.876Z,103.54
2019-01-12T00:24:57.274Z,103.53
2019-01-12T00:25:57.557Z,103.26
2019-01-12T00:26:57.940Z,103.16
2019-01-12T00:27:58.153Z,103.02
2019-01-12T00:28:58.410Z,103.38
2019-01-12T00:29:58.847Z,103.30
2019-01-12T00:30:59.164Z,102.86
2019-01-12T00:31:59.600Z,102.99
2019-01-12T00:33:00.014Z,103.22
2019-01-12T00:33:59.448Z,103.24
2019-01-12T00:35:00.832Z,103.05
2019-01-12T00:36:01.253Z,103.18
2019-01-12T00:37:01.701Z,103.33
2019-01-12T00:38:01.976Z,103.03
2019-01-12T00:39:02.288Z,102.99
2019-01-12T00:40:02.526Z,102.96
2019-01-12T00:41:02.813Z,102.45
2019-01-12T00:42:03.309Z,102.46
2019-01-12T00:43:03.790Z,102.27
2019-01-12T00:44:04.478Z,102.06
2019-01-12T00:45:04.762Z,102.13
2019-01-12T00:46:05.048Z,101.75
2019-01-12T00:47:05.363Z,101.89
2019-01-12T00:48:05.610Z,101.80
2019-01-12T00:49:05.886Z,101.57
2019-01-12T00:50:06.158Z,101.73
2019-01-12T00:51:06.468Z,101.45
2019-01-12T00:52:06.939Z,101.16
2019-01-12T00:53:07.236Z,101.15
2019-01-12T00:54:07.615Z,101.50
2019-01-12T00:55:07.945Z,101.31
2019-01-12T00:56:08.246Z,100.82
2019-01-12T00:57:09.256Z,100.61
2019-01-12T00:58:08.405Z,101.04
2019-01-12T00:59:09.737Z,100.62
2019-01-12T01:00:10.000Z,100.65
2019-01-12T01:01:10.402Z,100.72
2019-01-12T01:02:10.698Z,101.23
2019-01-12T01:03:10.963Z,101.36
2019-01-12T01:03:19.101Z,101.34
2019-01-12T01:04:19.322Z,101.32
2019-01-12T01:05:20.644Z,101.03
2019-01-12T01:06:20.957Z,100.92
2019-01-12T01:07:21.455Z,100.55
2019-01-12T01:08:21.767Z,100.87
2019-01-12T01:09:22.211Z,100.97
2019-01-12T01:10:22.626Z,100.99
2019-01-12T01:11:22.901Z,101.09
2019-01-12T01:12:23.296Z,101.39
2019-01-12T01:13:24.000Z,101.26
2019-01-12T01:14:24.343Z,101.23
2019-01-12T01:15:24.639Z,100.64
2019-01-12T01:16:24.952Z,100.97
2019-01-12T01:17:25.183Z,101.26
2019-01-12T01:18:25.436Z,101.39
2019-01-12T01:19:25.738Z,101.42
2019-01-12T01:20:26.081Z,100.79
2019-01-12T01:21:26.385Z,100.56
2019-01-12T01:22:26.693Z,100.30
2019-01-12T01:23:27.090Z,100.19
2019-01-12T01:24:27.531Z,99.98
2019-01-12T01:25:27.840Z,99.80
2019-01-12T01:26:28.544Z,99.70
2019-01-12T01:27:28.825Z,99.32
2019-01-12T01:28:29.118Z,99.35
2019-01-12T01:29:29.412Z,99.56
2019-01-12T01:30:29.733Z,99.21
2019-01-12T01:31:30.057Z,99.51
2019-01-12T01:32:30.490Z,99.45
2019-01-12T01:33:30.790Z,99.56
2019-01-12T01:34:31.198Z,99.67
2019-01-12T01:35:32.087Z,99.61
2019-01-12T01:36:32.404Z,99.60
2019-01-12T01:37:32.787Z,99.83
2019-01-12T01:38:33.071Z,100.06
2019-01-12T01:39:33.381Z,99.45
2019-01-12T01:40:33.705Z,99.31
2019-01-12T01:41:34.084Z,99.79
2019-01-12T01:42:34.423Z,99.60
2019-01-12T01:43:34.773Z,99.84
2019-01-12T01:44:35.080Z,99.99
2019-01-12T01:45:35.691Z,100.14
2019-01-12T01:46:36.115Z,99.66
2019-01-12T01:46:46.038Z,99.26
2019-01-12T01:47:47.310Z,99.26
2019-01-12T01:48:47.546Z,99.70
2019-01-12T01:49:48.148Z,99.47
2019-01-12T01:50:48.413Z,98.70
2019-01-12T01:51:48.978Z,98.87
2019-01-12T01:52:49.298Z,99.04
2019-01-12T01:53:49.615Z,99.13
2019-01-12T01:54:52.778Z,99.31
2019-01-12T01:55:49.290Z,98.71
2019-01-12T01:56:49.498Z,98.87
2019-01-12T01:57:51.199Z,98.78
2019-01-12T01:58:51.482Z,98.38
2019-01-12T01:59:51.830Z,98.11
2019-01-12T02:00:52.152Z,98.62
2019-01-12T02:01:52.535Z,98.69
2019-01-12T02:02:52.830Z,99.15
2019-01-12T02:03:53.095Z,99.40
2019-01-12T02:04:53.389Z,99.39
2019-01-12T02:05:52.568Z,99.36
2019-01-12T02:06:53.936Z,99.06
2019-01-12T02:07:54.210Z,99.15
2019-01-12T02:08:54.514Z,99.56
2019-01-12T02:09:54.747Z,99.73
2019-01-12T02:10:55.219Z,99.13
2019-01-12T02:11:55.508Z,99.15
2019-01-12T02:12:55.904Z,99.45
2019-01-12T02:13:55.095Z,99.19
2019-01-12T02:14:56.356Z,99.11
2019-01-12T02:15:56.624Z,98.83
2019-01-12T02:16:56.885Z,98.79
2019-01-12T02:17:57.210Z,98.78
2019-01-12T02:18:57.489Z,99.01
2019-01-12T02:19:58.001Z,98.62
2019-01-12T02:20:58.288Z,98.95
2019-01-12T02:21:58.579Z,98.76
2019-01-12T02:22:58.880Z,98.65
2019-01-12T02:23:59.612Z,98.79
2019-01-12T02:25:00.254Z,98.46
2019-01-12T02:25:59.648Z,98.44
2019-01-12T02:27:00.901Z,98.60
2019-01-12T02:28:01.152Z,98.49
2019-01-12T02:29:02.050Z,97.52
2019-01-12T02:30:02.568Z,97.44
2019-01-12T02:31:02.999Z,97.51
2019-01-12T02:32:03.009Z,97.23
2019-01-12T02:32:13.068Z,97.13
2019-01-12T02:33:13.671Z,97.15
2019-01-12T02:34:14.123Z,96.79
2019-01-12T02:35:14.416Z,96.45
2019-01-12T02:36:14.857Z,96.64
2019-01-12T02:37:15.190Z,96.59
2019-01-12T02:38:15.459Z,96.57
2019-01-12T02:39:15.709Z,96.30
2019-01-12T02:40:16.235Z,96.29
2019-01-12T02:41:16.571Z,96.34
2019-01-12T02:42:16.804Z,96.34
2019-01-12T02:43:17.051Z,96.32
2019-01-12T02:44:17.270Z,96.53
2019-01-12T02:45:17.538Z,96.38
2019-01-12T02:46:18.010Z,96.21
2019-01-12T02:47:18.320Z,96.37
2019-01-12T02:48:19.213Z,95.93
2019-01-12T02:49:19.520Z,95.82
2019-01-12T02:50:19.952Z,96.17
2019-01-12T02:51:20.262Z,96.13
2019-01-12T02:52:20.643Z,96.37
2019-01-12T02:53:20.921Z,96.06
2019-01-12T02:54:21.201Z,95.69
2019-01-12T02:55:21.446Z,95.81
2019-01-12T02:56:21.888Z,95.86
2019-01-12T02:57:22.145Z,95.93
2019-01-12T02:58:22.367Z,95.77
2019-01-12T02:59:22.643Z,95.24
2019-01-12T03:00:22.952Z,95.61
2019-01-12T03:01:23.372Z,95.71
2019-01-12T03:02:23.749Z,96.17
2019-01-12T03:03:24.045Z,96.34
2019-01-12T03:04:24.530Z,96.56
2019-01-12T03:05:23.722Z,96.79
2019-01-12T03:06:25.182Z,96.92
2019-01-12T03:07:25.584Z,97.02
2019-01-12T03:08:25.888Z,96.35
2019-01-12T03:09:26.174Z,96.46
2019-01-12T03:10:26.622Z,96.57
2019-01-12T03:11:27.011Z,96.77
2019-01-12T03:12:27.456Z,96.87
2019-01-12T03:13:27.709Z,96.93
2019-01-12T03:14:28.693Z,97.12
2019-01-12T03:15:28.927Z,97.17
2019-01-12T03:16:29.380Z,97.02
2019-01-12T03:16:38.463Z,97.05
2019-01-12T03:17:38.275Z,97.08
2019-01-12T03:18:39.581Z,97.23
2019-01-12T03:19:39.842Z,97.36
2019-01-12T03:20:40.072Z,97.48
2019-01-12T03:21:40.375Z,97.58
2019-01-12T03:22:40.917Z,97.86
2019-01-12T03:23:41.173Z,98.20
2019-01-12T03:24:41.515Z,98.48
2019-01-12T03:25:41.803Z,98.39
2019-01-12T03:26:42.185Z,98.37
2019-01-12T03:27:42.542Z,98.62
2019-01-12T03:28:43.033Z,98.84
2019-01-12T03:29:43.376Z,98.80
2019-01-12T03:30:43.647Z,98.90
2019-01-12T03:31:44.117Z,98.50
2019-01-12T03:32:44.489Z,98.18
2019-01-12T03:33:44.851Z,98.15
2019-01-12T03:34:45.203Z,97.90
2019-01-12T03:35:45.612Z,98.02
2019-01-12T03:36:46.092Z,98.57
2019-01-12T03:37:46.328Z,98.25
2019-01-12T03:38:46.532Z,98.12
2019-01-12T03:39:46.825Z,98.59
2019-01-12T03:40:47.084Z,98.08
2019-01-12T03:41:47.375Z,97.71
2019-01-12T03:42:47.619Z,98.28
2019-01-12T03:43:47.912Z,98.02
2019-01-12T03:44:48.155Z,98.03
2019-01-12T03:45:48.439Z,98.03
2019-01-12T03:46:49.062Z,98.16
2019-01-12T03:47:49.368Z,98.15
2019-01-12T03:48:49.654Z,98.19
2019-01-12T03:49:49.931Z,98.52
2019-01-12T03:50:50.351Z,98.48
2019-01-12T03:51:50.656Z,98.03
2019-01-12T03:52:51.415Z,98.04
2019-01-12T03:53:51.855Z,97.71
2019-01-12T03:54:52.073Z,98.07
2019-01-12T03:55:52.362Z,97.51
2019-01-12T03:56:52.918Z,97.48
2019-01-12T03:57:53.260Z,97.58
2019-01-12T03:58:53.570Z,97.98
2019-01-12T03:59:53.821Z,97.86
2019-01-12T04:00:54.094Z,97.64
2019-01-12T04:01:02.518Z,97.64
2019-01-12T04:02:03.781Z,97.65
2019-01-12T04:03:03.976Z,97.27
2019-01-12T04:04:04.318Z,97.45
2019-01-12T04:05:04.748Z,98.21
2019-01-12T04:06:05.039Z,98.51
2019-01-12T04:07:05.437Z,98.61
2019-01-12T04:08:06.203Z,98.41
2019-01-12T04:09:06.507Z,98.32
2019-01-12T04:10:06.768Z,98.48
2019-01-12T04:11:07.124Z,98.56
2019-01-12T04:12:07.435Z,98.98
2019-01-12T04:13:07.675Z,99.40
2019-01-12T04:14:07.988Z,99.29
2019-01-12T04:15:08.275Z,99.02
2019-01-12T04:16:08.696Z,99.23
2019-01-12T04:17:08.992Z,99.67
2019-01-12T04:18:09.269Z,99.81
2019-01-12T04:19:09.547Z,99.52
2019-01-12T04:20:09.769Z,99.75
2019-01-12T04:21:10.470Z,99.46
2019-01-12T04:22:10.824Z,99.35
2019-01-12T04:23:11.208Z,99.19
2019-01-12T04:24:11.760Z,99.25
2019-01-12T04:25:12.006Z,99.31
2019-01-12T04:26:12.351Z,99.50
2019-01-12T04:27:12.502Z,99.54
2019-01-12T04:28:13.152Z,100.00
2019-01-12T04:29:13.547Z,100.19
2019-01-12T04:30:14.001Z,100.19
2019-01-12T04:31:14.488Z,100.11
2019-01-12T04:32:14.817Z,99.92
2019-01-12T04:33:15.268Z,100.06
2019-01-12T04:34:15.522Z,100.03
2019-01-12T04:35:15.986Z,100.00
2019-01-12T04:36:16.253Z,100.12
2019-01-12T04:37:16.571Z,99.85
2019-01-12T04:38:17.027Z,100.32
2019-01-12T04:39:17.362Z,100.31
2019-01-12T04:40:17.651Z,100.33
2019-01-12T04:41:17.965Z,100.16
2019-01-12T04:42:18.185Z,100.19
2019-01-12T04:43:18.453Z,100.07
2019-01-12T04:44:18.748Z,100.09
2019-01-12T04:44:27.183Z,99.70
2019-01-12T04:45:27.706Z,99.68
2019-01-12T04:46:29.046Z,100.00
2019-01-12T04:47:29.335Z,100.04
2019-01-12T04:48:29.678Z,100.10
2019-01-12T04:49:29.912Z,99.80
2019-01-12T04:50:30.409Z,100.00
2019-01-12T04:51:30.678Z,99.69
2019-01-12T04:52:30.955Z,99.52
2019-01-12T04:53:31.332Z,99.38
2019-01-12T04:54:31.747Z,99.60
2019-01-12T04:55:32.069Z,99.45
2019-01-12T04:56:32.371Z,99.51
2019-01-12T04:57:32.850Z,99.18
2019-01-12T04:58:33.536Z,99.11
2019-01-12T04:59:34.276Z,98.82
2019-01-12T05:00:34.659Z,98.64
2019-01-12T05:01:34.964Z,98.69
2019-01-12T05:02:35.240Z,99.08
2019-01-12T05:03:35.547Z,98.84
2019-01-12T05:04:36.073Z,98.70
2019-01-12T05:05:36.330Z,98.45
2019-01-12T05:06:36.639Z,98.41
2019-01-12T05:07:37.118Z,98.12
2019-01-12T05:08:37.739Z,97.73
2019-01-12T05:09:38.013Z,97.86
2019-01-12T05:10:38.320Z,97.82
2019-01-12T05:11:38.725Z,97.55
2019-01-12T05:12:39.096Z,97.98
2019-01-12T05:13:39.324Z,97.96
2019-01-12T05:14:39.591Z,97.88
2019-01-12T05:15:40.156Z,97.33
2019-01-12T05:16:40.936Z,97.32
2019-01-12T05:17:41.515Z,97.87
2019-01-12T05:18:40.748Z,97.84
2019-01-12T05:19:42.010Z,97.90
2019-01-12T05:20:42.399Z,98.31
2019-01-12T05:21:42.682Z,98.09
2019-01-12T05:22:42.942Z,97.98
2019-01-12T05:23:43.153Z,98.01
2019-01-12T05:24:43.514Z,98.12
2019-01-12T05:25:48.849Z,98.08
2019-01-12T05:26:43.190Z,97.68
2019-01-12T05:27:44.452Z,97.65
2019-01-12T05:28:44.729Z,97.66
2019-01-12T05:29:44.972Z,97.59
2019-01-12T05:29:53.872Z,97.57
2019-01-12T05:30:55.503Z,97.52
2019-01-12T05:31:55.808Z,97.82
2019-01-12T05:32:56.027Z,97.84
2019-01-12T05:33:55.567Z,98.09
2019-01-12T05:34:56.868Z,98.14
2019-01-12T05:35:57.186Z,98.30
2019-01-12T05:36:57.403Z,98.44
2019-01-12T05:37:57.795Z,98.36
2019-01-12T05:38:59.289Z,98.29
2019-01-12T05:39:59.572Z,98.53
2019-01-12T05:40:58.926Z,98.73
2019-01-12T05:41:59.358Z,99.03
2019-01-12T05:43:00.140Z,98.90
2019-01-12T05:44:00.437Z,98.42
2019-01-12T05:45:01.015Z,98.24
2019-01-12T05:46:01.153Z,98.57
2019-01-12T05:47:01.606Z,98.13
2019-01-12T05:48:02.148Z,97.95
2019-01-12T05:49:02.642Z,98.01
2019-01-12T05:50:03.340Z,98.02
2019-01-12T05:51:03.613Z,98.08
2019-01-12T05:52:02.963Z,97.83
2019-01-12T05:53:04.198Z,97.34
2019-01-12T05:54:04.658Z,97.69
2019-01-12T05:55:04.917Z,97.52
2019-01-12T05:56:05.219Z,97.64
2019-01-12T05:57:05.504Z,97.58
2019-01-12T05:58:05.880Z,97.70
2019-01-12T05:59:06.241Z,97.60
2019-01-12T06:00:06.649Z,97.93
2019-01-12T06:01:06.962Z,97.61
2019-01-12T06:02:07.519Z,97.50
2019-01-12T06:03:07.928Z,97.35
2019-01-12T06:04:08.175Z,97.31
2019-01-12T06:05:08.548Z,97.25
2019-01-12T06:06:09.070Z,97.28
2019-01-12T06:07:09.550Z,97.43
2019-01-12T06:08:08.834Z,97.16
2019-01-12T06:09:10.034Z,97.15
2019-01-12T06:10:10.368Z,97.08
2019-01-12T06:11:10.646Z,97.34
2019-01-12T06:12:10.873Z,97.23
2019-01-12T06:13:11.494Z,97.28
2019-01-12T06:14:11.866Z,97.19
2019-01-12T06:15:12.188Z,97.06
2019-01-12T06:15:20.485Z,97.69
2019-01-12T06:16:21.832Z,97.68
2019-01-12T06:17:22.127Z,97.51
2019-01-12T06:18:22.513Z,97.94
2019-01-12T06:19:23.435Z,97.97
2019-01-12T06:20:23.684Z,97.39
2019-01-12T06:21:24.168Z,97.50
2019-01-12T06:22:24.381Z,97.74
2019-01-12T06:23:25.140Z,97.68
2019-01-12T06:24:25.396Z,97.91
2019-01-12T06:25:25.676Z,97.96
2019-01-12T06:26:25.953Z,97.90
2019-01-12T06:27:26.405Z,97.81
2019-01-12T06:28:26.674Z,97.99
2019-01-12T06:29:27.070Z,97.83
2019-01-12T06:30:27.546Z,97.79
2019-01-12T06:31:27.868Z,97.97
2019-01-12T06:32:28.636Z,98.45
2019-01-12T06:33:29.151Z,98.49
2019-01-12T06:34:29.409Z,98.43
2019-01-12T06:35:29.636Z,97.89
2019-01-12T06:36:30.194Z,97.17
2019-01-12T06:37:30.431Z,96.88
2019-01-12T06:38:30.787Z,97.24
2019-01-12T06:39:31.163Z,97.33
2019-01-12T06:40:32.055Z,97.24
2019-01-12T06:41:32.778Z,97.17
2019-01-12T06:42:33.083Z,97.45
2019-01-12T06:43:33.376Z,97.64
2019-01-12T06:44:33.598Z,97.41
2019-01-12T06:45:33.800Z,97.34
2019-01-12T06:46:34.162Z,97.45
2019-01-12T06:47:34.338Z,97.42
2019-01-12T06:48:34.752Z,97.78
2019-01-12T06:49:35.291Z,97.83
2019-01-12T06:50:35.761Z,97.63
2019-01-12T06:51:36.059Z,97.91
2019-01-12T06:52:36.381Z,97.84
2019-01-12T06:53:36.644Z,97.94
2019-01-12T06:54:36.945Z,98.49
2019-01-12T06:55:37.370Z,98.58
2019-01-12T06:56:37.751Z,98.50
2019-01-12T06:57:38.105Z,98.97
2019-01-12T06:58:38.658Z,99.23
2019-01-12T06:59:38.804Z,99.16
2019-01-12T07:00:39.030Z,99.38
2019-01-12T07:01:39.500Z,99.65
2019-01-12T07:02:39.336Z,99.87
2019-01-12T07:02:51.778Z,99.64
2019-01-12T07:03:52.818Z,99.64
2019-01-12T07:04:51.959Z,99.86
2019-01-12T07:05:52.912Z,99.55
2019-01-12T07:06:53.928Z,99.49
2019-01-12T07:07:53.849Z,99.20
2019-01-12T07:08:55.431Z,99.40
2019-01-12T07:09:54.884Z,99.41
2019-01-12T07:10:56.413Z,98.88
2019-01-12T07:11:57.559Z,98.69
2019-01-12T07:12:56.329Z,98.67
2019-01-12T07:13:57.701Z,98.85
2019-01-12T07:14:58.327Z,98.91
2019-01-12T07:15:58.963Z,99.01
2019-01-12T07:16:58.085Z,98.98
2019-01-12T07:17:58.481Z,98.97
2019-01-12T07:18:58.749Z,98.56
2019-01-12T07:20:00.174Z,98.42
2019-01-12T07:21:00.182Z,98.49
2019-01-12T07:22:00.438Z,98.37
2019-01-12T07:23:02.345Z,98.06
2019-01-12T07:24:01.906Z,98.01
2019-01-12T07:25:02.835Z,97.87
2019-01-12T07:26:04.848Z,98.06
2019-01-12T07:27:05.970Z,97.67
2019-01-12T07:28:05.532Z,97.68
2019-01-12T07:29:06.793Z,98.03
2019-01-12T07:30:07.066Z,98.21
2019-01-12T07:31:07.693Z,98.52
2019-01-12T07:32:06.675Z,97.44
2019-01-12T07:33:08.774Z,97.04
2019-01-12T07:34:07.950Z,96.68
2019-01-12T07:35:08.938Z,96.83
2019-01-12T07:36:09.901Z,97.18
2019-01-12T07:37:10.836Z,97.22
2019-01-12T07:38:11.148Z,97.71
2019-01-12T07:39:10.241Z,98.07
2019-01-12T07:40:10.402Z,98.36
2019-01-12T07:41:10.687Z,98.65
2019-01-12T07:42:10.670Z,98.74
2019-01-12T07:43:12.170Z,98.70
2019-01-12T07:44:12.356Z,98.67
2019-01-12T07:45:11.531Z,98.65
2019-01-12T07:46:11.374Z,98.82
2019-01-12T07:47:13.286Z,98.81
2019-01-12T07:48:13.686Z,98.75
2019-01-12T07:49:14.008Z,98.48
2019-01-12T07:50:14.390Z,98.32
2019-01-12T07:51:14.612Z,98.19
2019-01-12T07:52:15.075Z,98.47
2019-01-12T07:53:15.321Z,98.54
2019-01-12T07:54:15.662Z,98.37
2019-01-12T07:55:15.905Z,98.24
2019-01-12T07:56:16.222Z,98.28
2019-01-12T07:57:16.610Z,97.73
2019-01-12T07:58:16.970Z,97.31
2019-01-12T07:59:17.489Z,97.63
2019-01-12T08:00:18.288Z,97.61
2019-01-12T08:01:18.536Z,97.61
2019-01-12T08:02:18.759Z,97.67
2019-01-12T08:03:19.013Z,97.95
2019-01-12T08:04:19.542Z,98.36
2019-01-12T08:04:27.929Z,98.22
2019-01-12T08:05:29.139Z,98.24
2019-01-12T08:06:29.421Z,98.21
2019-01-12T08:07:29.999Z,97.93
2019-01-12T08:08:30.575Z,97.95
2019-01-12T08:09:31.015Z,97.72
2019-01-12T08:10:31.272Z,98.04
2019-01-12T08:11:31.747Z,97.47
2019-01-12T08:12:32.178Z,97.55
2019-01-12T08:13:32.593Z,97.38
2019-01-12T08:14:33.087Z,97.50
2019-01-12T08:15:33.304Z,97.54
2019-01-12T08:16:33.597Z,97.72
2019-01-12T08:17:34.070Z,97.41
2019-01-12T08:18:34.661Z,97.33
2019-01-12T08:19:34.953Z,97.61
2019-01-12T08:20:35.235Z,97.35
2019-01-12T08:21:35.501Z,97.10
2019-01-12T08:22:35.894Z,96.94
2019-01-12T08:23:36.747Z,97.06
2019-01-12T08:24:37.040Z,96.53
2019-01-12T08:25:37.383Z,96.63
2019-01-12T08:26:37.802Z,96.82
2019-01-12T08:27:38.182Z,96.48
2019-01-12T08:28:38.602Z,96.21
2019-01-12T08:29:38.920Z,96.46
2019-01-12T08:30:39.486Z,96.18
2019-01-12T08:31:39.933Z,96.53
2019-01-12T08:32:40.326Z,96.38
2019-01-12T08:33:40.618Z,96.50
2019-01-12T08:34:40.918Z,96.36
2019-01-12T08:35:41.363Z,96.23
2019-01-12T08:36:41.816Z,96.61
2019-01-12T08:37:42.212Z,96.53
2019-01-12T08:38:42.591Z,96.69
2019-01-12T08:39:42.841Z,96.87
2019-01-12T08:40:43.191Z,96.90
2019-01-12T08:41:43.525Z,96.17
2019-01-12T08:42:43.790Z,96.72
2019-01-12T08:43:44.083Z,96.51
2019-01-12T08:44:44.742Z,96.48
2019-01-12T08:45:45.040Z,96.26
2019-01-12T08:46:45.362Z,95.95
2019-01-12T08:47:45.732Z,96.33
2019-01-12T08:47:54.050Z,96.09
2019-01-12T08:48:55.517Z,96.15
2019-01-12T08:49:55.815Z,96.69
2019-01-12T08:50:56.154Z,96.74
2019-01-12T08:51:56.462Z,96.31
2019-01-12T08:52:57.068Z,96.24
2019-01-12T08:53:57.336Z,96.50
2019-01-12T08:54:57.679Z,96.64
2019-01-12T08:55:57.929Z,96.73
2019-01-12T08:56:58.264Z,96.41
2019-01-12T08:57:58.567Z,95.74
2019-01-12T08:58:58.887Z,95.80
2019-01-12T08:59:59.248Z,95.45
2019-01-12T09:00:59.634Z,95.54
2019-01-12T09:02:00.216Z,95.62
2019-01-12T09:03:00.480Z,95.35
2019-01-12T09:04:00.782Z,95.27
2019-01-12T09:05:00.165Z,95.46
2019-01-12T09:06:01.470Z,95.53
2019-01-12T09:07:01.896Z,95.30
2019-01-12T09:08:02.286Z,95.44
2019-01-12T09:09:02.632Z,95.52
2019-01-12T09:10:03.070Z,95.56
2019-01-12T09:11:03.766Z,96.08
2019-01-12T09:12:04.026Z,95.86
2019-01-12T09:13:04.374Z,95.52
2019-01-12T09:14:05.184Z,95.58
2019-01-12T09:15:06.106Z,95.92
2019-01-12T09:16:06.383Z,95.99
2019-01-12T09:17:05.686Z,96.17
2019-01-12T09:18:07.068Z,95.99
2019-01-12T09:19:07.359Z,96.34
2019-01-12T09:20:07.925Z,95.90
2019-01-12T09:21:08.392Z,95.93
2019-01-12T09:22:08.740Z,95.95
2019-01-12T09:23:09.186Z,95.86
2019-01-12T09:24:09.476Z,95.93
2019-01-12T09:25:10.127Z,96.02
2019-01-12T09:26:10.540Z,95.76
2019-01-12T09:27:10.801Z,95.75
2019-01-12T09:28:11.193Z,95.87
2019-01-12T09:29:11.478Z,95.60
2019-01-12T09:30:11.740Z,95.02
2019-01-12T09:31:12.033Z,95.33
2019-01-12T09:32:12.491Z,94.66
2019-01-12T09:33:12.789Z,93.53
2019-01-12T09:33:20.841Z,93.14
2019-01-12T09:34:22.108Z,93.08
2019-01-12T09:35:22.346Z,93.41
2019-01-12T09:36:22.604Z,92.94
2019-01-12T09:37:22.997Z,92.54
2019-01-12T09:38:23.258Z,93.10
2019-01-12T09:39:23.704Z,92.69
2019-01-12T09:40:23.941Z,92.72
2019-01-12T09:41:24.456Z,93.23
2019-01-12T09:42:24.684Z,93.18
2019-01-12T09:43:25.225Z,93.51
2019-01-12T09:44:25.506Z,93.76
2019-01-12T09:45:25.751Z,93.53
2019-01-12T09:46:26.417Z,93.27
2019-01-12T09:47:26.792Z,93.08
2019-01-12T09:48:27.168Z,93.18
2019-01-12T09:49:27.506Z,93.50
2019-01-12T09:50:27.912Z,93.93
2019-01-12T09:51:28.240Z,93.76
2019-01-12T09:52:28.500Z,93.15
2019-01-12T09:53:28.794Z,93.31
2019-01-12T09:54:29.090Z,93.51
2019-01-12T09:55:29.612Z,93.00
2019-01-12T09:56:30.096Z,93.06
2019-01-12T09:57:30.412Z,93.32
2019-01-12T09:58:30.760Z,93.33
2019-01-12T09:59:30.996Z,92.79
2019-01-12T10:00:31.248Z,93.00
2019-01-12T10:01:31.693Z,93.63
2019-01-12T10:02:32.211Z,93.59
2019-01-12T10:03:31.913Z,92.88
2019-01-12T10:04:33.198Z,92.36
2019-01-12T10:05:33.907Z,92.52
2019-01-12T10:06:34.205Z,92.96
2019-01-12T10:07:34.623Z,93.11
2019-01-12T10:08:34.860Z,93.50
2019-01-12T10:09:35.218Z,92.26
2019-01-12T10:10:35.686Z,92.34
2019-01-12T10:11:36.001Z,91.92
2019-01-12T10:12:36.505Z,91.83
2019-01-12T10:14:36.236Z,91.67
2019-01-12T10:15:37.860Z,91.26
2019-01-12T10:15:46.187Z,91.80
2019-01-12T10:16:47.418Z,91.83
2019-01-12T10:17:47.700Z,90.62
2019-01-12T10:18:47.979Z,90.60
2019-01-12T10:19:48.385Z,90.43
2019-01-12T10:20:48.752Z,90.07
2019-01-12T10:21:49.336Z,90.19
2019-01-12T10:22:48.793Z,90.19
2019-01-12T10:23:50.231Z,90.33
2019-01-12T10:24:50.675Z,90.28
2019-01-12T10:25:51.175Z,89.99
2019-01-12T10:26:50.455Z,90.68
2019-01-12T10:27:51.800Z,89.99
2019-01-12T10:28:52.159Z,90.37
2019-01-12T10:29:52.392Z,89.71
2019-01-12T10:30:52.695Z,90.30
2019-01-12T10:31:53.039Z,89.81
2019-01-12T10:32:53.369Z,89.94
2019-01-12T10:33:53.625Z,90.26
2019-01-12T10:34:53.920Z,90.28
2019-01-12T10:35:54.208Z,90.08
2019-01-12T10:36:54.481Z,90.21
2019-01-12T10:37:54.716Z,89.84
2019-01-12T10:38:55.301Z,89.84
2019-01-12T10:39:55.548Z,89.83
2019-01-12T10:40:55.882Z,88.95
2019-01-12T10:41:56.174Z,89.16
2019-01-12T10:42:56.575Z,89.18
2019-01-12T10:43:56.874Z,89.98
2019-01-12T10:44:57.099Z,89.41
2019-01-12T10:45:57.404Z,88.80
2019-01-12T10:46:57.889Z,89.19
2019-01-12T10:47:58.122Z,89.25
2019-01-12T10:48:58.360Z,89.25
2019-01-12T10:49:58.631Z,88.88
2019-01-12T10:50:59.108Z,89.51
2019-01-12T10:51:59.354Z,89.07
2019-01-12T10:52:59.706Z,89.00
2019-01-12T10:53:59.996Z,89.52
2019-01-12T10:55:00.459Z,88.81
2019-01-12T10:56:00.459Z,89.18
2019-01-12T10:57:05.461Z,89.03
2019-01-12T10:58:00.120Z,88.69
2019-01-12T10:59:00.337Z,88.55
2019-01-12T11:00:01.567Z,89.32
2019-01-12T11:00:11.628Z,89.04
2019-01-12T11:01:12.874Z,89.08
2019-01-12T11:02:13.331Z,89.46
2019-01-12T11:03:12.617Z,89.29
2019-01-12T11:04:14.077Z,89.00
2019-01-12T11:05:14.412Z,89.51
2019-01-12T11:06:14.702Z,89.24
2019-01-12T11:07:15.207Z,89.25
2019-01-12T11:08:14.467Z,89.86
2019-01-12T11:09:15.803Z,89.52
2019-01-12T11:10:16.079Z,89.03
2019-01-12T11:11:16.718Z,88.65
2019-01-12T11:12:17.177Z,89.11
2019-01-12T11:13:17.559Z,88.90
2019-01-12T11:14:17.904Z,89.29
2019-01-12T11:15:18.409Z,89.50
2019-01-12T11:16:18.660Z,89.09
2019-01-12T11:17:18.932Z,89.67
2019-01-12T11:18:19.285Z,89.61
2019-01-12T11:19:19.627Z,89.50
2019-01-12T11:20:20.048Z,89.75
2019-01-12T11:21:20.512Z,89.79
2019-01-12T11:22:20.834Z,90.01
2019-01-12T11:23:21.704Z,89.79
2019-01-12T11:24:22.119Z,89.52
2019-01-12T11:25:22.487Z,89.75
2019-01-12T11:26:22.895Z,89.99
2019-01-12T11:27:23.356Z,89.83
2019-01-12T11:28:23.579Z,89.90
2019-01-12T11:29:23.793Z,89.75
2019-01-12T11:30:24.123Z,89.71
2019-01-12T11:31:24.374Z,89.66
2019-01-12T11:32:24.631Z,90.03
2019-01-12T11:33:24.903Z,89.40
2019-01-12T11:34:25.329Z,89.62
2019-01-12T11:35:25.848Z,89.56
2019-01-12T11:36:26.131Z,89.07
2019-01-12T11:37:26.327Z,89.33
2019-01-12T11:38:26.591Z,89.75
2019-01-12T11:39:27.271Z,89.64
2019-01-12T11:40:27.715Z,89.56
2019-01-12T11:41:28.049Z,89.61
2019-01-12T11:42:28.380Z,89.30
2019-01-12T11:43:28.704Z,89.17
2019-01-12T11:44:29.047Z,88.80
2019-01-12T11:45:29.446Z,89.02
2019-01-12T11:45:43.519Z,89.25
2019-01-12T11:46:44.887Z,89.25
2019-01-12T11:47:45.808Z,88.57
2019-01-12T11:48:46.419Z,88.72
2019-01-12T11:49:46.782Z,89.19
2019-01-12T11:50:47.258Z,88.78
2019-01-12T11:51:46.507Z,88.37
2019-01-12T11:52:47.755Z,88.85
2019-01-12T11:53:48.005Z,89.57
2019-01-12T11:54:48.375Z,89.08
2019-01-12T11:55:48.696Z,88.66
2019-01-12T11:56:49.173Z,89.06
2019-01-12T11:57:49.572Z,88.67
2019-01-12T11:58:49.898Z,88.67
2019-01-12T11:59:50.144Z,89.32
2019-01-12T12:00:50.422Z,88.74
2019-01-12T12:01:50.700Z,89.09
2019-01-12T12:02:50.910Z,89.32
2019-01-12T12:03:51.190Z,88.97
2019-01-12T12:04:51.514Z,88.70
2019-01-12T12:05:51.896Z,89.01
2019-01-12T12:06:52.546Z,89.20
2019-01-12T12:07:52.868Z,88.76
2019-01-12T12:08:53.181Z,89.10
2019-01-12T12:09:53.489Z,89.15
2019-01-12T12:10:53.906Z,89.31
2019-01-12T12:11:54.301Z,89.75
2019-01-12T12:12:54.651Z,89.44
2019-01-12T12:13:54.987Z,89.71
2019-01-12T12:14:54.300Z,89.38
2019-01-12T12:15:55.698Z,89.38
2019-01-12T12:16:56.048Z,89.35
2019-01-12T12:17:56.498Z,89.18
2019-01-12T12:18:56.830Z,89.27
2019-01-12T12:19:57.174Z,89.08
2019-01-12T12:20:57.705Z,89.32
2019-01-12T12:21:57.980Z,89.48
2019-01-12T12:22:58.352Z,89.66
2019-01-12T12:23:58.666Z,89.37
2019-01-12T12:24:59.165Z,89.23
2019-01-12T12:25:59.555Z,89.08
2019-01-12T12:26:59.857Z,89.32
2019-01-12T12:28:00.288Z,89.63
2019-01-12T12:29:00.596Z,89.98
2019-01-12T12:30:00.847Z,90.33
2019-01-12T12:30:08.934Z,90.09
2019-01-12T12:31:10.236Z,90.06
2019-01-12T12:32:10.598Z,89.86
2019-01-12T12:33:10.920Z,89.94
2019-01-12T12:34:11.204Z,90.23
2019-01-12T12:35:11.586Z,90.32
2019-01-12T12:36:11.911Z,90.59
2019-01-12T12:37:12.333Z,90.65
2019-01-12T12:38:13.215Z,90.78
2019-01-12T12:39:13.539Z,90.15
2019-01-12T12:40:13.827Z,90.20
2019-01-12T12:41:14.213Z,90.63